Ashland, WV

10:26 AM EDT on July 28, 2014 (GMT -0400)
Parkview Heights (KVABLUEF4) Elev 2402 ft | 37.24 °N, 81.28 °W | Change Station

Current weather conditions updated 12 seconds ago

Overcast
Overcast
65.9 °F
Feels Like 65.9 °F
N
7.0
Wind Variable Wind from WSW
Gusts 13.0 mph

Today is forecast to be Cooler than yesterday.

Today
High -- | Low -- °F
--% Chance of Precip.
Yesterday
High -- | Low -- °F
Precip. -- in
6:26 AM 8:37 PM
New Moon, 2% visible
Pressure 29.93 in
Visibility 10.0 miles
Clouds Scattered Clouds 1600 ft
Mostly Cloudy 2800 ft
Overcast 4600 ft
Dew Point 59 °F
Humidity 79%
Rainfall 0.20 in
Snow Depth Not available.
UV 3.0 out of 12
Pollen 3.90 out of 12
Air Quality Not available.
Flu Activity Not available.
SPECI KBLF 281325Z AUTO 28012G24KT 10SM SCT016 BKN028 OVC046 18/14 A2993 RMK AO2 T01830139

More Conditions Fewer Conditions

Pressure 29.93 in
Visibility 10.0 miles
Clouds Scattered Clouds 1600 ft
Mostly Cloudy 2800 ft
Overcast 4600 ft
Dew Point 59 °F
Humidity 79%
Rainfall 0.20 in
Snow Depth Not available.
UV 3.0 out of 12
Pollen 3.90 out of 12
Air Quality Not available.
Flu Activity Not available.
SPECI KBLF 281325Z AUTO 28012G24KT 10SM SCT016 BKN028 OVC046 18/14 A2993 RMK AO2 T01830139

More Conditions Fewer Conditions

10-Day Weather Forecast

Almanac

Astronomy

Jul. 28, 2014 Rise Set
Actual Time 6:26 AM EDT 8:37 PM EDT
Civil Twilight 5:57 AM EDT 9:06 PM EDT
Nautical Twilight 5:21 AM EDT 9:41 PM EDT
Astronomical Twilight 4:42 AM EDT 10:20 PM EDT
Moon 8:03 AM EDT 9:21 PM EDT
Length of Visible Light 15h 08m
Length of Day
14h 10m
Tomorrow will be 1m 42s shorter.
New Moon, 2% of the Moon is Illuminated
Today
New Moon
Aug 3
First Quarter
Aug 10
Full
Aug 17
Last Quarter
Aug 25
New

Today's Extremes

State Highs State Lows

Community

WunderPhotos

Upload Photos

1,738,337 photos uploaded!

Nearby

Snow Depth

Station Depth Elevation
No new snow has been reported.

Earthquake Activity

City Distance Mag. Time & Date
No recent earthquake activity has been reported nearby.
Minimum magnitude displayed is 2.5.

Coastal Water Temperatures

Place Temperature
No Stations Reporting

Nearby Weather Stations

Station Location Temp. Heat Index Dew Point Humidity Wind Precip. Elev Updated Type
Parkview Heights, Bluefield, VA 65.9 °F - 59 °F 79% WSW  at  7.0 mph 0.00 in / hr 2402 ft 10:26 AM EDT Rapid Fire
Mullens, WV 70.7 °F 74 °F 61 °F 72% NE  at  11.4 mph 0.00 in / hr 1585 ft 10:20 AM EDT Normal
Oxley Hollow Road, Princeton, WV 67.5 °F - 60 °F 77% SSW  at  2.0 mph 0.00 in / hr 2411 ft 10:23 AM EDT Normal
Flat Top Lake, Ghent, WV 62.6 °F - 58 °F 85% NW  at  6.3 mph - / hr 2969 ft 10:12 AM EDT Normal
VADOT I-77_@_MP_54, Bastian, VA 65 °F - 56 °F 70% WSW  at  4 mph 0.00 in / hr 2668 ft 9:26 AM EDT MADIS

Show More Stations Show Fewer Stations